sensor_id;sensor_type;location;lat;lon;timestamp;P1;durP1;ratioP1;P2;durP2;ratioP2
17864;SDS011;9058;52.018;4.202;2022-10-18T00:00:05;12.57;;;5.85;;
17864;SDS011;9058;52.018;4.202;2022-10-18T00:02:32;13.13;;;5.72;;
17864;SDS011;9058;52.018;4.202;2022-10-18T00:05:01;14.90;;;6.75;;
17864;SDS011;9058;52.018;4.202;2022-10-18T00:07:28;12.00;;;6.45;;
17864;SDS011;9058;52.018;4.202;2022-10-18T00:09:54;20.48;;;7.75;;
17864;SDS011;9058;52.018;4.202;2022-10-18T00:12:21;21.35;;;7.50;;
17864;SDS011;9058;52.018;4.202;2022-10-18T00:14:47;16.88;;;6.90;;
17864;SDS011;9058;52.018;4.202;2022-10-18T00:17:15;19.50;;;7.85;;
17864;SDS011;9058;52.018;4.202;2022-10-18T00:19:41;16.75;;;7.05;;
17864;SDS011;9058;52.018;4.202;2022-10-18T00:22:09;26.98;;;7.70;;
17864;SDS011;9058;52.018;4.202;2022-10-18T00:24:36;16.83;;;7.57;;
17864;SDS011;9058;52.018;4.202;2022-10-18T00:27:03;18.83;;;7.30;;
17864;SDS011;9058;52.018;4.202;2022-10-18T00:29:30;13.27;;;7.05;;
17864;SDS011;9058;52.018;4.202;2022-10-18T00:31:56;16.83;;;7.40;;
17864;SDS011;9058;52.018;4.202;2022-10-18T00:34:23;12.43;;;7.22;;
17864;SDS011;9058;52.018;4.202;2022-10-18T00:36:49;22.08;;;8.18;;
17864;SDS011;9058;52.018;4.202;2022-10-18T00:39:19;34.75;;;9.15;;
17864;SDS011;9058;52.018;4.202;2022-10-18T00:41:46;11.48;;;7.10;;
17864;SDS011;9058;52.018;4.202;2022-10-18T00:46:59;12.73;;;7.97;;
17864;SDS011;9058;52.018;4.202;2022-10-18T00:49:27;18.17;;;8.57;;
17864;SDS011;9058;52.018;4.202;2022-10-18T00:51:56;13.02;;;7.63;;
17864;SDS011;9058;52.018;4.202;2022-10-18T00:54:25;16.98;;;8.73;;
17864;SDS011;9058;52.018;4.202;2022-10-18T00:56:53;14.55;;;8.13;;
17864;SDS011;9058;52.018;4.202;2022-10-18T00:59:20;13.48;;;8.25;;
17864;SDS011;9058;52.018;4.202;2022-10-18T01:01:46;13.70;;;8.52;;
17864;SDS011;9058;52.018;4.202;2022-10-18T01:04:14;17.02;;;8.35;;
17864;SDS011;9058;52.018;4.202;2022-10-18T01:06:44;15.45;;;7.70;;
17864;SDS011;9058;52.018;4.202;2022-10-18T01:09:24;19.35;;;8.50;;
17864;SDS011;9058;52.018;4.202;2022-10-18T01:11:59;23.65;;;9.80;;
17864;SDS011;9058;52.018;4.202;2022-10-18T01:14:33;28.88;;;9.57;;
17864;SDS011;9058;52.018;4.202;2022-10-18T01:17:03;25.35;;;9.77;;
17864;SDS011;9058;52.018;4.202;2022-10-18T01:19:42;22.30;;;9.50;;
17864;SDS011;9058;52.018;4.202;2022-10-18T01:22:12;17.25;;;8.23;;
17864;SDS011;9058;52.018;4.202;2022-10-18T01:24:44;19.15;;;8.82;;
17864;SDS011;9058;52.018;4.202;2022-10-18T01:27:24;22.08;;;8.55;;
17864;SDS011;9058;52.018;4.202;2022-10-18T01:29:58;26.30;;;9.00;;
17864;SDS011;9058;52.018;4.202;2022-10-18T01:32:30;25.17;;;8.10;;
17864;SDS011;9058;52.018;4.202;2022-10-18T01:34:59;14.70;;;7.90;;
17864;SDS011;9058;52.018;4.202;2022-10-18T01:37:28;25.10;;;8.27;;
17864;SDS011;9058;52.018;4.202;2022-10-18T01:39:56;26.08;;;8.35;;
17864;SDS011;9058;52.018;4.202;2022-10-18T01:42:23;204.27;;;11.75;;
17864;SDS011;9058;52.018;4.202;2022-10-18T01:44:51;338.98;;;13.38;;
17864;SDS011;9058;52.018;4.202;2022-10-18T01:47:18;459.70;;;17.25;;
17864;SDS011;9058;52.018;4.202;2022-10-18T01:49:46;34.67;;;9.65;;
17864;SDS011;9058;52.018;4.202;2022-10-18T01:52:13;119.95;;;12.60;;
17864;SDS011;9058;52.018;4.202;2022-10-18T01:54:40;244.18;;;15.85;;
17864;SDS011;9058;52.018;4.202;2022-10-18T01:57:08;307.52;;;18.55;;
17864;SDS011;9058;52.018;4.202;2022-10-18T01:59:40;383.10;;;21.02;;
17864;SDS011;9058;52.018;4.202;2022-10-18T02:02:17;321.83;;;17.73;;
17864;SDS011;9058;52.018;4.202;2022-10-18T02:04:47;48.67;;;9.85;;
17864;SDS011;9058;52.018;4.202;2022-10-18T02:07:22;22.52;;;9.32;;
17864;SDS011;9058;52.018;4.202;2022-10-18T02:09:51;24.08;;;9.23;;
17864;SDS011;9058;52.018;4.202;2022-10-18T02:12:20;22.73;;;9.38;;
17864;SDS011;9058;52.018;4.202;2022-10-18T02:14:47;95.50;;;11.48;;
17864;SDS011;9058;52.018;4.202;2022-10-18T02:17:14;101.18;;;10.35;;
17864;SDS011;9058;52.018;4.202;2022-10-18T02:19:43;38.25;;;9.25;;
17864;SDS011;9058;52.018;4.202;2022-10-18T02:22:13;149.50;;;8.98;;
17864;SDS011;9058;52.018;4.202;2022-10-18T02:24:41;212.38;;;12.50;;
17864;SDS011;9058;52.018;4.202;2022-10-18T02:27:08;103.95;;;9.65;;
17864;SDS011;9058;52.018;4.202;2022-10-18T02:29:36;115.55;;;9.43;;
17864;SDS011;9058;52.018;4.202;2022-10-18T02:32:03;31.35;;;9.20;;
17864;SDS011;9058;52.018;4.202;2022-10-18T02:34:31;124.15;;;10.98;;
17864;SDS011;9058;52.018;4.202;2022-10-18T02:37:01;101.45;;;9.65;;
17864;SDS011;9058;52.018;4.202;2022-10-18T02:39:30;103.45;;;10.02;;
17864;SDS011;9058;52.018;4.202;2022-10-18T02:41:57;139.50;;;10.95;;
17864;SDS011;9058;52.018;4.202;2022-10-18T02:44:24;380.85;;;15.73;;
17864;SDS011;9058;52.018;4.202;2022-10-18T02:46:51;246.13;;;14.30;;
17864;SDS011;9058;52.018;4.202;2022-10-18T02:49:18;154.05;;;12.00;;
17864;SDS011;9058;52.018;4.202;2022-10-18T02:51:44;113.53;;;10.25;;
17864;SDS011;9058;52.018;4.202;2022-10-18T02:54:11;159.52;;;11.57;;
17864;SDS011;9058;52.018;4.202;2022-10-18T02:56:41;89.47;;;10.07;;
17864;SDS011;9058;52.018;4.202;2022-10-18T02:59:07;210.85;;;13.65;;
17864;SDS011;9058;52.018;4.202;2022-10-18T03:01:34;163.98;;;11.45;;
17864;SDS011;9058;52.018;4.202;2022-10-18T03:04:02;47.13;;;7.97;;
17864;SDS011;9058;52.018;4.202;2022-10-18T03:06:29;67.07;;;10.07;;
17864;SDS011;9058;52.018;4.202;2022-10-18T03:08:56;40.80;;;8.93;;
17864;SDS011;9058;52.018;4.202;2022-10-18T03:11:23;82.43;;;10.05;;
17864;SDS011;9058;52.018;4.202;2022-10-18T03:13:51;266.17;;;14.25;;
17864;SDS011;9058;52.018;4.202;2022-10-18T03:16:18;180.90;;;8.88;;
17864;SDS011;9058;52.018;4.202;2022-10-18T03:18:44;155.75;;;11.43;;
17864;SDS011;9058;52.018;4.202;2022-10-18T03:21:11;118.93;;;9.60;;
17864;SDS011;9058;52.018;4.202;2022-10-18T03:23:38;104.97;;;10.13;;
17864;SDS011;9058;52.018;4.202;2022-10-18T03:26:06;151.48;;;11.00;;
17864;SDS011;9058;52.018;4.202;2022-10-18T03:28:32;103.13;;;10.00;;
17864;SDS011;9058;52.018;4.202;2022-10-18T03:31:02;228.80;;;13.40;;
17864;SDS011;9058;52.018;4.202;2022-10-18T03:33:30;172.77;;;8.90;;
17864;SDS011;9058;52.018;4.202;2022-10-18T03:35:57;233.23;;;13.70;;
17864;SDS011;9058;52.018;4.202;2022-10-18T03:38:25;89.72;;;9.20;;
17864;SDS011;9058;52.018;4.202;2022-10-18T03:40:51;38.75;;;8.82;;
17864;SDS011;9058;52.018;4.202;2022-10-18T03:43:19;37.40;;;7.95;;
17864;SDS011;9058;52.018;4.202;2022-10-18T03:45:45;33.90;;;10.20;;
17864;SDS011;9058;52.018;4.202;2022-10-18T03:48:15;19.40;;;7.30;;
17864;SDS011;9058;52.018;4.202;2022-10-18T03:50:41;23.75;;;7.40;;
17864;SDS011;9058;52.018;4.202;2022-10-18T03:53:08;19.17;;;7.40;;
17864;SDS011;9058;52.018;4.202;2022-10-18T03:55:35;23.42;;;7.28;;
17864;SDS011;9058;52.018;4.202;2022-10-18T03:58:01;49.20;;;6.90;;
17864;SDS011;9058;52.018;4.202;2022-10-18T04:00:28;104.90;;;9.05;;
17864;SDS011;9058;52.018;4.202;2022-10-18T04:02:55;29.83;;;8.75;;
17864;SDS011;9058;52.018;4.202;2022-10-18T04:05:24;108.25;;;11.02;;
17864;SDS011;9058;52.018;4.202;2022-10-18T04:07:52;186.80;;;12.98;;
17864;SDS011;9058;52.018;4.202;2022-10-18T04:10:18;69.43;;;8.38;;
17864;SDS011;9058;52.018;4.202;2022-10-18T04:12:45;16.42;;;6.18;;
17864;SDS011;9058;52.018;4.202;2022-10-18T04:15:12;12.10;;;6.00;;
17864;SDS011;9058;52.018;4.202;2022-10-18T04:17:39;15.77;;;6.63;;
17864;SDS011;9058;52.018;4.202;2022-10-18T04:20:06;17.65;;;7.43;;
17864;SDS011;9058;52.018;4.202;2022-10-18T04:22:36;12.35;;;5.40;;
17864;SDS011;9058;52.018;4.202;2022-10-18T04:25:03;58.92;;;7.82;;
17864;SDS011;9058;52.018;4.202;2022-10-18T04:27:29;71.00;;;9.38;;
17864;SDS011;9058;52.018;4.202;2022-10-18T04:29:57;73.20;;;9.30;;
17864;SDS011;9058;52.018;4.202;2022-10-18T04:32:23;67.95;;;9.07;;
17864;SDS011;9058;52.018;4.202;2022-10-18T04:34:51;72.35;;;9.95;;
17864;SDS011;9058;52.018;4.202;2022-10-18T04:37:18;60.72;;;9.98;;
17864;SDS011;9058;52.018;4.202;2022-10-18T04:39:46;27.05;;;7.22;;
17864;SDS011;9058;52.018;4.202;2022-10-18T04:42:13;52.55;;;9.20;;
17864;SDS011;9058;52.018;4.202;2022-10-18T04:44:39;45.88;;;9.73;;
17864;SDS011;9058;52.018;4.202;2022-10-18T04:47:07;51.97;;;9.73;;
17864;SDS011;9058;52.018;4.202;2022-10-18T04:49:34;99.28;;;8.63;;
17864;SDS011;9058;52.018;4.202;2022-10-18T04:52:01;38.38;;;6.65;;
17864;SDS011;9058;52.018;4.202;2022-10-18T04:54:27;47.05;;;8.55;;
17864;SDS011;9058;52.018;4.202;2022-10-18T04:56:56;34.97;;;8.70;;
17864;SDS011;9058;52.018;4.202;2022-10-18T04:59:23;31.10;;;9.10;;
17864;SDS011;9058;52.018;4.202;2022-10-18T05:01:49;24.65;;;7.63;;
17864;SDS011;9058;52.018;4.202;2022-10-18T05:04:16;27.55;;;8.07;;
17864;SDS011;9058;52.018;4.202;2022-10-18T05:06:42;22.27;;;7.53;;
17864;SDS011;9058;52.018;4.202;2022-10-18T05:09:10;23.35;;;6.97;;
17864;SDS011;9058;52.018;4.202;2022-10-18T05:11:36;16.13;;;6.50;;
17864;SDS011;9058;52.018;4.202;2022-10-18T05:14:04;23.40;;;6.47;;
17864;SDS011;9058;52.018;4.202;2022-10-18T05:16:34;26.45;;;7.38;;
17864;SDS011;9058;52.018;4.202;2022-10-18T05:19:01;55.10;;;9.27;;
17864;SDS011;9058;52.018;4.202;2022-10-18T05:21:28;22.60;;;7.43;;
17864;SDS011;9058;52.018;4.202;2022-10-18T05:23:55;18.27;;;6.72;;
17864;SDS011;9058;52.018;4.202;2022-10-18T05:26:22;15.45;;;5.85;;
17864;SDS011;9058;52.018;4.202;2022-10-18T05:28:49;53.35;;;7.60;;
17864;SDS011;9058;52.018;4.202;2022-10-18T05:31:18;26.83;;;7.65;;
17864;SDS011;9058;52.018;4.202;2022-10-18T05:33:45;94.15;;;12.68;;
17864;SDS011;9058;52.018;4.202;2022-10-18T05:36:13;76.70;;;14.23;;
17864;SDS011;9058;52.018;4.202;2022-10-18T05:38:41;75.65;;;12.88;;
17864;SDS011;9058;52.018;4.202;2022-10-18T05:41:09;51.88;;;13.20;;
17864;SDS011;9058;52.018;4.202;2022-10-18T05:43:36;43.05;;;12.85;;
17864;SDS011;9058;52.018;4.202;2022-10-18T05:46:03;42.20;;;13.18;;
17864;SDS011;9058;52.018;4.202;2022-10-18T05:48:33;53.47;;;13.35;;
17864;SDS011;9058;52.018;4.202;2022-10-18T05:51:00;73.18;;;13.90;;
17864;SDS011;9058;52.018;4.202;2022-10-18T05:53:27;68.25;;;12.35;;
17864;SDS011;9058;52.018;4.202;2022-10-18T05:55:58;31.83;;;9.93;;
17864;SDS011;9058;52.018;4.202;2022-10-18T05:58:25;36.95;;;10.68;;
17864;SDS011;9058;52.018;4.202;2022-10-18T06:00:51;19.30;;;9.73;;
17864;SDS011;9058;52.018;4.202;2022-10-18T06:03:18;20.00;;;8.35;;
17864;SDS011;9058;52.018;4.202;2022-10-18T06:05:46;24.60;;;8.75;;
17864;SDS011;9058;52.018;4.202;2022-10-18T06:08:12;29.98;;;9.45;;
17864;SDS011;9058;52.018;4.202;2022-10-18T06:10:40;21.23;;;8.10;;
17864;SDS011;9058;52.018;4.202;2022-10-18T06:13:07;18.98;;;8.80;;
17864;SDS011;9058;52.018;4.202;2022-10-18T06:15:33;21.90;;;8.70;;
17864;SDS011;9058;52.018;4.202;2022-10-18T06:18:00;15.77;;;7.63;;
17864;SDS011;9058;52.018;4.202;2022-10-18T06:20:26;20.20;;;9.27;;
17864;SDS011;9058;52.018;4.202;2022-10-18T06:22:54;18.15;;;8.23;;
17864;SDS011;9058;52.018;4.202;2022-10-18T06:25:21;17.02;;;7.70;;
17864;SDS011;9058;52.018;4.202;2022-10-18T06:27:47;14.90;;;7.28;;
17864;SDS011;9058;52.018;4.202;2022-10-18T06:30:15;18.92;;;7.40;;
17864;SDS011;9058;52.018;4.202;2022-10-18T06:32:41;14.43;;;8.50;;
17864;SDS011;9058;52.018;4.202;2022-10-18T06:35:09;14.85;;;7.70;;
17864;SDS011;9058;52.018;4.202;2022-10-18T06:37:35;16.83;;;7.45;;
17864;SDS011;9058;52.018;4.202;2022-10-18T06:40:04;17.17;;;7.53;;
17864;SDS011;9058;52.018;4.202;2022-10-18T06:42:31;15.38;;;7.38;;
17864;SDS011;9058;52.018;4.202;2022-10-18T06:44:58;10.57;;;6.57;;
17864;SDS011;9058;52.018;4.202;2022-10-18T06:47:25;13.07;;;7.00;;
17864;SDS011;9058;52.018;4.202;2022-10-18T06:49:52;18.15;;;8.50;;
17864;SDS011;9058;52.018;4.202;2022-10-18T06:52:18;16.38;;;7.55;;
17864;SDS011;9058;52.018;4.202;2022-10-18T06:54:49;11.85;;;7.32;;
17864;SDS011;9058;52.018;4.202;2022-10-18T06:57:17;18.65;;;8.18;;
17864;SDS011;9058;52.018;4.202;2022-10-18T06:59:45;21.35;;;9.07;;
17864;SDS011;9058;52.018;4.202;2022-10-18T07:02:14;25.40;;;9.13;;
17864;SDS011;9058;52.018;4.202;2022-10-18T07:04:42;34.75;;;9.85;;
17864;SDS011;9058;52.018;4.202;2022-10-18T07:07:09;15.75;;;7.85;;
17864;SDS011;9058;52.018;4.202;2022-10-18T07:09:35;24.23;;;9.40;;
17864;SDS011;9058;52.018;4.202;2022-10-18T07:12:02;24.90;;;9.30;;
17864;SDS011;9058;52.018;4.202;2022-10-18T07:14:30;21.92;;;8.93;;
17864;SDS011;9058;52.018;4.202;2022-10-18T07:16:57;25.38;;;9.27;;
17864;SDS011;9058;52.018;4.202;2022-10-18T07:19:23;30.75;;;9.77;;
17864;SDS011;9058;52.018;4.202;2022-10-18T07:21:50;29.63;;;8.40;;
17864;SDS011;9058;52.018;4.202;2022-10-18T07:24:16;32.08;;;9.00;;
17864;SDS011;9058;52.018;4.202;2022-10-18T07:26:43;25.08;;;8.57;;
17864;SDS011;9058;52.018;4.202;2022-10-18T07:29:10;18.08;;;7.90;;
17864;SDS011;9058;52.018;4.202;2022-10-18T07:31:38;19.50;;;7.40;;
17864;SDS011;9058;52.018;4.202;2022-10-18T07:34:05;25.10;;;7.60;;
17864;SDS011;9058;52.018;4.202;2022-10-18T07:36:32;19.30;;;7.05;;
17864;SDS011;9058;52.018;4.202;2022-10-18T07:38:58;15.40;;;6.95;;
17864;SDS011;9058;52.018;4.202;2022-10-18T07:41:26;13.65;;;8.20;;
17864;SDS011;9058;52.018;4.202;2022-10-18T07:43:53;18.08;;;6.72;;
17864;SDS011;9058;52.018;4.202;2022-10-18T07:46:20;9.55;;;7.28;;
17864;SDS011;9058;52.018;4.202;2022-10-18T07:48:49;16.20;;;7.50;;
17864;SDS011;9058;52.018;4.202;2022-10-18T07:51:16;14.05;;;7.50;;
17864;SDS011;9058;52.018;4.202;2022-10-18T07:53:42;13.23;;;6.28;;
17864;SDS011;9058;52.018;4.202;2022-10-18T07:56:11;15.27;;;7.03;;
17864;SDS011;9058;52.018;4.202;2022-10-18T07:58:40;11.65;;;5.95;;
17864;SDS011;9058;52.018;4.202;2022-10-18T08:01:07;11.38;;;5.68;;
17864;SDS011;9058;52.018;4.202;2022-10-18T08:03:34;14.20;;;5.30;;
17864;SDS011;9058;52.018;4.202;2022-10-18T08:06:02;10.82;;;4.80;;
17864;SDS011;9058;52.018;4.202;2022-10-18T08:08:29;12.48;;;5.35;;
17864;SDS011;9058;52.018;4.202;2022-10-18T08:11:00;14.75;;;5.00;;
17864;SDS011;9058;52.018;4.202;2022-10-18T08:13:27;12.60;;;4.25;;
17864;SDS011;9058;52.018;4.202;2022-10-18T08:15:57;9.70;;;3.30;;
17864;SDS011;9058;52.018;4.202;2022-10-18T08:18:24;11.13;;;3.28;;
17864;SDS011;9058;52.018;4.202;2022-10-18T08:20:50;12.93;;;2.47;;
17864;SDS011;9058;52.018;4.202;2022-10-18T08:23:18;8.73;;;2.65;;
17864;SDS011;9058;52.018;4.202;2022-10-18T08:25:45;8.88;;;3.10;;
17864;SDS011;9058;52.018;4.202;2022-10-18T08:28:11;8.43;;;2.60;;
17864;SDS011;9058;52.018;4.202;2022-10-18T08:30:38;6.55;;;1.33;;
17864;SDS011;9058;52.018;4.202;2022-10-18T08:33:05;8.27;;;2.10;;
17864;SDS011;9058;52.018;4.202;2022-10-18T08:35:31;8.95;;;1.75;;
17864;SDS011;9058;52.018;4.202;2022-10-18T08:37:58;10.63;;;1.60;;
17864;SDS011;9058;52.018;4.202;2022-10-18T08:40:26;6.97;;;1.13;;
17864;SDS011;9058;52.018;4.202;2022-10-18T08:42:57;9.93;;;1.83;;
17864;SDS011;9058;52.018;4.202;2022-10-18T08:45:25;6.00;;;1.23;;
17864;SDS011;9058;52.018;4.202;2022-10-18T08:47:52;9.13;;;1.45;;
17864;SDS011;9058;52.018;4.202;2022-10-18T08:50:22;8.75;;;1.48;;
17864;SDS011;9058;52.018;4.202;2022-10-18T08:52:52;6.03;;;1.10;;
17864;SDS011;9058;52.018;4.202;2022-10-18T08:55:28;9.85;;;1.35;;
17864;SDS011;9058;52.018;4.202;2022-10-18T08:58:00;9.23;;;1.75;;
17864;SDS011;9058;52.018;4.202;2022-10-18T09:00:27;5.53;;;1.25;;
17864;SDS011;9058;52.018;4.202;2022-10-18T09:03:05;4.63;;;1.00;;
17864;SDS011;9058;52.018;4.202;2022-10-18T09:05:37;6.28;;;1.20;;
17864;SDS011;9058;52.018;4.202;2022-10-18T09:08:19;9.85;;;1.30;;
17864;SDS011;9058;52.018;4.202;2022-10-18T09:10:52;4.15;;;1.20;;
17864;SDS011;9058;52.018;4.202;2022-10-18T09:13:26;7.60;;;1.30;;
17864;SDS011;9058;52.018;4.202;2022-10-18T09:15:56;6.53;;;1.13;;
17864;SDS011;9058;52.018;4.202;2022-10-18T09:18:29;7.28;;;1.17;;
17864;SDS011;9058;52.018;4.202;2022-10-18T09:21:04;5.40;;;1.15;;
17864;SDS011;9058;52.018;4.202;2022-10-18T09:23:34;6.90;;;1.35;;
17864;SDS011;9058;52.018;4.202;2022-10-18T09:26:09;6.00;;;0.93;;
17864;SDS011;9058;52.018;4.202;2022-10-18T09:28:39;6.60;;;1.65;;
17864;SDS011;9058;52.018;4.202;2022-10-18T09:31:10;9.05;;;1.33;;
17864;SDS011;9058;52.018;4.202;2022-10-18T09:33:39;6.38;;;1.40;;
17864;SDS011;9058;52.018;4.202;2022-10-18T09:36:08;4.95;;;1.08;;
17864;SDS011;9058;52.018;4.202;2022-10-18T09:38:39;6.50;;;1.33;;
17864;SDS011;9058;52.018;4.202;2022-10-18T09:41:11;6.88;;;1.88;;
17864;SDS011;9058;52.018;4.202;2022-10-18T09:43:42;9.93;;;1.80;;
17864;SDS011;9058;52.018;4.202;2022-10-18T09:46:11;6.18;;;1.30;;
17864;SDS011;9058;52.018;4.202;2022-10-18T09:48:41;5.40;;;1.10;;
17864;SDS011;9058;52.018;4.202;2022-10-18T09:51:10;7.32;;;1.48;;
17864;SDS011;9058;52.018;4.202;2022-10-18T09:53:39;8.50;;;1.40;;
17864;SDS011;9058;52.018;4.202;2022-10-18T09:56:09;4.55;;;1.35;;
17864;SDS011;9058;52.018;4.202;2022-10-18T09:58:40;7.63;;;1.17;;
17864;SDS011;9058;52.018;4.202;2022-10-18T10:01:08;5.95;;;1.10;;
17864;SDS011;9058;52.018;4.202;2022-10-18T10:03:36;7.18;;;1.33;;
17864;SDS011;9058;52.018;4.202;2022-10-18T10:08:46;6.07;;;1.25;;
17864;SDS011;9058;52.018;4.202;2022-10-18T10:11:25;6.68;;;1.33;;
17864;SDS011;9058;52.018;4.202;2022-10-18T10:13:53;6.53;;;1.17;;
17864;SDS011;9058;52.018;4.202;2022-10-18T10:16:22;6.97;;;1.52;;
17864;SDS011;9058;52.018;4.202;2022-10-18T10:18:50;5.60;;;1.05;;
17864;SDS011;9058;52.018;4.202;2022-10-18T10:21:18;8.82;;;2.03;;
17864;SDS011;9058;52.018;4.202;2022-10-18T10:23:49;5.18;;;1.65;;
17864;SDS011;9058;52.018;4.202;2022-10-18T10:26:20;8.45;;;1.50;;
17864;SDS011;9058;52.018;4.202;2022-10-18T10:28:47;4.65;;;1.30;;
17864;SDS011;9058;52.018;4.202;2022-10-18T10:31:25;6.25;;;1.15;;
17864;SDS011;9058;52.018;4.202;2022-10-18T10:33:57;8.00;;;1.10;;
17864;SDS011;9058;52.018;4.202;2022-10-18T10:36:25;4.75;;;1.13;;
17864;SDS011;9058;52.018;4.202;2022-10-18T10:39:01;7.00;;;1.10;;
17864;SDS011;9058;52.018;4.202;2022-10-18T10:41:29;7.07;;;1.42;;
17864;SDS011;9058;52.018;4.202;2022-10-18T10:43:56;8.18;;;1.38;;
17864;SDS011;9058;52.018;4.202;2022-10-18T10:46:24;6.18;;;1.58;;
17864;SDS011;9058;52.018;4.202;2022-10-18T10:48:58;4.65;;;1.38;;
17864;SDS011;9058;52.018;4.202;2022-10-18T10:51:27;5.72;;;1.23;;
17864;SDS011;9058;52.018;4.202;2022-10-18T10:53:56;7.18;;;1.05;;
17864;SDS011;9058;52.018;4.202;2022-10-18T10:56:24;3.22;;;0.93;;
17864;SDS011;9058;52.018;4.202;2022-10-18T10:58:52;4.15;;;1.20;;
17864;SDS011;9058;52.018;4.202;2022-10-18T11:01:21;6.93;;;1.30;;
17864;SDS011;9058;52.018;4.202;2022-10-18T11:03:51;4.43;;;0.75;;
17864;SDS011;9058;52.018;4.202;2022-10-18T11:06:29;5.70;;;1.10;;
17864;SDS011;9058;52.018;4.202;2022-10-18T11:08:57;6.20;;;1.70;;
17864;SDS011;9058;52.018;4.202;2022-10-18T11:11:26;5.10;;;1.08;;
17864;SDS011;9058;52.018;4.202;2022-10-18T11:13:55;4.05;;;1.20;;
17864;SDS011;9058;52.018;4.202;2022-10-18T11:16:25;5.93;;;1.40;;
17864;SDS011;9058;52.018;4.202;2022-10-18T11:18:57;6.15;;;1.60;;
17864;SDS011;9058;52.018;4.202;2022-10-18T11:21:26;6.30;;;1.48;;
17864;SDS011;9058;52.018;4.202;2022-10-18T11:23:55;5.43;;;1.50;;
17864;SDS011;9058;52.018;4.202;2022-10-18T11:26:28;4.97;;;1.25;;
17864;SDS011;9058;52.018;4.202;2022-10-18T11:29:01;6.13;;;1.38;;
17864;SDS011;9058;52.018;4.202;2022-10-18T11:31:31;6.15;;;1.40;;
17864;SDS011;9058;52.018;4.202;2022-10-18T11:34:05;7.32;;;1.58;;
17864;SDS011;9058;52.018;4.202;2022-10-18T11:36:38;6.00;;;1.10;;
17864;SDS011;9058;52.018;4.202;2022-10-18T11:39:07;7.07;;;1.50;;
17864;SDS011;9058;52.018;4.202;2022-10-18T11:41:37;8.18;;;1.50;;
17864;SDS011;9058;52.018;4.202;2022-10-18T11:44:08;8.73;;;1.40;;
17864;SDS011;9058;52.018;4.202;2022-10-18T11:46:42;5.60;;;1.35;;
17864;SDS011;9058;52.018;4.202;2022-10-18T11:49:18;6.55;;;1.40;;
17864;SDS011;9058;52.018;4.202;2022-10-18T11:51:52;6.65;;;1.70;;
17864;SDS011;9058;52.018;4.202;2022-10-18T11:54:30;8.88;;;1.58;;
17864;SDS011;9058;52.018;4.202;2022-10-18T11:57:04;8.65;;;1.50;;
17864;SDS011;9058;52.018;4.202;2022-10-18T11:59:35;3.72;;;1.27;;
17864;SDS011;9058;52.018;4.202;2022-10-18T12:04:53;4.47;;;1.10;;
17864;SDS011;9058;52.018;4.202;2022-10-18T12:07:21;6.93;;;1.50;;
17864;SDS011;9058;52.018;4.202;2022-10-18T12:09:49;5.72;;;1.10;;
17864;SDS011;9058;52.018;4.202;2022-10-18T12:12:18;7.13;;;1.20;;
17864;SDS011;9058;52.018;4.202;2022-10-18T12:14:47;12.38;;;1.92;;
17864;SDS011;9058;52.018;4.202;2022-10-18T12:17:16;8.27;;;1.73;;
17864;SDS011;9058;52.018;4.202;2022-10-18T12:19:45;5.35;;;1.05;;
17864;SDS011;9058;52.018;4.202;2022-10-18T12:22:16;7.97;;;1.10;;
17864;SDS011;9058;52.018;4.202;2022-10-18T12:24:43;6.68;;;1.15;;
17864;SDS011;9058;52.018;4.202;2022-10-18T12:27:10;4.35;;;1.17;;
17864;SDS011;9058;52.018;4.202;2022-10-18T12:29:39;8.35;;;1.17;;
17864;SDS011;9058;52.018;4.202;2022-10-18T12:32:11;6.95;;;1.20;;
17864;SDS011;9058;52.018;4.202;2022-10-18T12:34:41;3.72;;;1.05;;
17864;SDS011;9058;52.018;4.202;2022-10-18T12:37:23;3.80;;;1.50;;
17864;SDS011;9058;52.018;4.202;2022-10-18T12:39:52;5.47;;;1.13;;
17864;SDS011;9058;52.018;4.202;2022-10-18T12:42:20;7.65;;;1.27;;
17864;SDS011;9058;52.018;4.202;2022-10-18T12:44:48;8.98;;;1.70;;
17864;SDS011;9058;52.018;4.202;2022-10-18T12:47:19;7.80;;;1.23;;
17864;SDS011;9058;52.018;4.202;2022-10-18T12:49:54;5.18;;;1.15;;
17864;SDS011;9058;52.018;4.202;2022-10-18T12:52:22;5.53;;;1.30;;
17864;SDS011;9058;52.018;4.202;2022-10-18T12:55:00;7.10;;;0.90;;
17864;SDS011;9058;52.018;4.202;2022-10-18T12:57:59;6.10;;;1.17;;
17864;SDS011;9058;52.018;4.202;2022-10-18T13:03:33;7.03;;;1.50;;
17864;SDS011;9058;52.018;4.202;2022-10-18T13:06:02;7.95;;;1.75;;
17864;SDS011;9058;52.018;4.202;2022-10-18T13:08:38;3.05;;;0.98;;
17864;SDS011;9058;52.018;4.202;2022-10-18T13:13:50;6.75;;;1.42;;
17864;SDS011;9058;52.018;4.202;2022-10-18T13:16:22;8.68;;;1.40;;
17864;SDS011;9058;52.018;4.202;2022-10-18T13:18:51;5.15;;;1.20;;
17864;SDS011;9058;52.018;4.202;2022-10-18T13:21:21;6.05;;;1.00;;
17864;SDS011;9058;52.018;4.202;2022-10-18T13:23:58;6.13;;;1.50;;
17864;SDS011;9058;52.018;4.202;2022-10-18T13:26:29;4.07;;;1.25;;
17864;SDS011;9058;52.018;4.202;2022-10-18T13:29:00;7.85;;;1.27;;
17864;SDS011;9058;52.018;4.202;2022-10-18T13:31:29;5.53;;;1.00;;
17864;SDS011;9058;52.018;4.202;2022-10-18T13:34:15;5.13;;;0.90;;
17864;SDS011;9058;52.018;4.202;2022-10-18T13:36:43;7.70;;;1.13;;
17864;SDS011;9058;52.018;4.202;2022-10-18T13:39:18;5.20;;;0.95;;
17864;SDS011;9058;52.018;4.202;2022-10-18T13:44:31;3.90;;;1.00;;
17864;SDS011;9058;52.018;4.202;2022-10-18T13:47:10;5.18;;;1.02;;
17864;SDS011;9058;52.018;4.202;2022-10-18T13:49:39;5.75;;;1.05;;
17864;SDS011;9058;52.018;4.202;2022-10-18T13:52:10;6.53;;;1.48;;
17864;SDS011;9058;52.018;4.202;2022-10-18T13:54:47;7.00;;;1.30;;
17864;SDS011;9058;52.018;4.202;2022-10-18T13:57:19;4.97;;;1.38;;
17864;SDS011;9058;52.018;4.202;2022-10-18T13:59:53;9.80;;;1.63;;
17864;SDS011;9058;52.018;4.202;2022-10-18T14:02:32;4.47;;;1.13;;
17864;SDS011;9058;52.018;4.202;2022-10-18T14:05:04;3.70;;;0.90;;
17864;SDS011;9058;52.018;4.202;2022-10-18T14:07:36;3.97;;;1.20;;
17864;SDS011;9058;52.018;4.202;2022-10-18T14:10:05;8.38;;;1.23;;
17864;SDS011;9058;52.018;4.202;2022-10-18T14:12:37;5.78;;;1.00;;
17864;SDS011;9058;52.018;4.202;2022-10-18T14:15:06;5.55;;;1.05;;
17864;SDS011;9058;52.018;4.202;2022-10-18T14:17:35;4.40;;;1.02;;
17864;SDS011;9058;52.018;4.202;2022-10-18T14:20:12;5.72;;;1.77;;
17864;SDS011;9058;52.018;4.202;2022-10-18T14:22:41;4.78;;;0.80;;
17864;SDS011;9058;52.018;4.202;2022-10-18T14:25:19;6.00;;;1.23;;
17864;SDS011;9058;52.018;4.202;2022-10-18T14:27:46;4.50;;;1.25;;
17864;SDS011;9058;52.018;4.202;2022-10-18T14:30:13;6.18;;;1.10;;
17864;SDS011;9058;52.018;4.202;2022-10-18T14:32:42;6.25;;;1.30;;
17864;SDS011;9058;52.018;4.202;2022-10-18T14:35:15;6.43;;;1.50;;
17864;SDS011;9058;52.018;4.202;2022-10-18T14:37:44;4.45;;;1.48;;
17864;SDS011;9058;52.018;4.202;2022-10-18T14:40:26;6.47;;;1.15;;
17864;SDS011;9058;52.018;4.202;2022-10-18T14:42:53;8.70;;;1.77;;
17864;SDS011;9058;52.018;4.202;2022-10-18T14:45:19;5.53;;;1.10;;
17864;SDS011;9058;52.018;4.202;2022-10-18T14:47:47;4.28;;;1.25;;
17864;SDS011;9058;52.018;4.202;2022-10-18T14:50:19;7.38;;;1.30;;
17864;SDS011;9058;52.018;4.202;2022-10-18T14:52:46;9.07;;;1.65;;
17864;SDS011;9058;52.018;4.202;2022-10-18T14:55:14;4.50;;;1.08;;
17864;SDS011;9058;52.018;4.202;2022-10-18T14:57:44;7.88;;;1.30;;
17864;SDS011;9058;52.018;4.202;2022-10-18T15:00:16;7.05;;;1.23;;
17864;SDS011;9058;52.018;4.202;2022-10-18T15:02:45;10.05;;;1.05;;
17864;SDS011;9058;52.018;4.202;2022-10-18T15:05:17;9.48;;;1.25;;
17864;SDS011;9058;52.018;4.202;2022-10-18T15:07:44;5.22;;;1.15;;
17864;SDS011;9058;52.018;4.202;2022-10-18T15:10:13;5.05;;;1.67;;
17864;SDS011;9058;52.018;4.202;2022-10-18T15:12:41;6.93;;;1.80;;
17864;SDS011;9058;52.018;4.202;2022-10-18T15:15:15;7.82;;;1.30;;
17864;SDS011;9058;52.018;4.202;2022-10-18T15:17:42;6.57;;;1.27;;